Weather at Parry Sound Harbour Seaplane Base

Public forecast

Using degrees Celsius for public forecast. Weather courtesy of forecast.io.

Closest aviation weather report (METAR) to Parry Sound Harbour Seaplane Base

Closest report is Muskoka Airport, 37.9 nm (70.2 km) SE. Retrieved 2021/09/16 18:00 UTC (49 minutes ago):

CYQA 161800Z AUTO 20008KT 170V240 9SM CLR 22/09 A3023 RMK SLP240 DENSITY ALT 1600FT

Closest aviation forecast (TAF) to Parry Sound Harbour Seaplane Base

Closest forecast is Muskoka Airport, 37.9 nm (70.2 km) SE. Retrieved 2021/09/16 14:42 UTC (4 hours ago):

TAF CYQA 161339Z 1614/1702 VRB03KT P6SM FEW010 FM161700 17008KT P6SM FEW050 BECMG 1623/1701 13005KT RMK FCST BASED ON AUTO OBS NXT FCST BY 162000Z